sensor_id;sensor_type;location;lat;lon;timestamp;temperature;humidity
34201;DHT22;20469;55.638;37.670;2023-07-13T00:01:49;13.70;99.90
34201;DHT22;20469;55.638;37.670;2023-07-13T00:04:21;13.60;99.90
34201;DHT22;20469;55.638;37.670;2023-07-13T00:06:49;13.60;99.90
34201;DHT22;20469;55.638;37.670;2023-07-13T00:09:18;13.40;99.90
34201;DHT22;20469;55.638;37.670;2023-07-13T00:11:49;13.60;99.90
34201;DHT22;20469;55.638;37.670;2023-07-13T00:14:16;13.60;99.90
34201;DHT22;20469;55.638;37.670;2023-07-13T00:16:44;13.60;99.90
34201;DHT22;20469;55.638;37.670;2023-07-13T00:19:12;13.50;99.90
34201;DHT22;20469;55.638;37.670;2023-07-13T00:21:40;13.60;99.90
34201;DHT22;20469;55.638;37.670;2023-07-13T00:24:12;13.60;99.90
34201;DHT22;20469;55.638;37.670;2023-07-13T00:26:42;13.50;99.90
34201;DHT22;20469;55.638;37.670;2023-07-13T00:29:13;13.50;99.90
34201;DHT22;20469;55.638;37.670;2023-07-13T00:31:40;13.50;99.90
34201;DHT22;20469;55.638;37.670;2023-07-13T00:34:08;13.60;99.90
34201;DHT22;20469;55.638;37.670;2023-07-13T00:36:35;13.60;99.90
34201;DHT22;20469;55.638;37.670;2023-07-13T00:39:03;13.60;99.90
34201;DHT22;20469;55.638;37.670;2023-07-13T00:41:31;13.60;99.90
34201;DHT22;20469;55.638;37.670;2023-07-13T00:43:59;13.70;99.90
34201;DHT22;20469;55.638;37.670;2023-07-13T00:46:29;13.60;99.90
34201;DHT22;20469;55.638;37.670;2023-07-13T00:49:00;13.60;99.90
34201;DHT22;20469;55.638;37.670;2023-07-13T00:51:36;13.50;99.90
34201;DHT22;20469;55.638;37.670;2023-07-13T00:54:08;13.50;99.90
34201;DHT22;20469;55.638;37.670;2023-07-13T00:56:36;13.50;99.90
34201;DHT22;20469;55.638;37.670;2023-07-13T00:59:06;13.50;99.90
34201;DHT22;20469;55.638;37.670;2023-07-13T01:01:34;13.50;99.90
34201;DHT22;20469;55.638;37.670;2023-07-13T01:04:01;13.50;99.90
34201;DHT22;20469;55.638;37.670;2023-07-13T01:06:28;13.60;99.90
34201;DHT22;20469;55.638;37.670;2023-07-13T01:08:58;13.60;99.90
34201;DHT22;20469;55.638;37.670;2023-07-13T01:11:26;13.50;99.90
34201;DHT22;20469;55.638;37.670;2023-07-13T01:13:54;13.70;99.90
34201;DHT22;20469;55.638;37.670;2023-07-13T01:16:27;13.70;99.90
34201;DHT22;20469;55.638;37.670;2023-07-13T01:18:56;13.60;99.90
34201;DHT22;20469;55.638;37.670;2023-07-13T01:21:29;13.60;99.90
34201;DHT22;20469;55.638;37.670;2023-07-13T01:23:57;13.60;99.90
34201;DHT22;20469;55.638;37.670;2023-07-13T01:26:25;13.60;99.90
34201;DHT22;20469;55.638;37.670;2023-07-13T01:28:54;13.50;99.90
34201;DHT22;20469;55.638;37.670;2023-07-13T01:31:23;13.50;99.90
34201;DHT22;20469;55.638;37.670;2023-07-13T01:33:51;13.50;99.90
34201;DHT22;20469;55.638;37.670;2023-07-13T01:36:18;13.40;99.90
34201;DHT22;20469;55.638;37.670;2023-07-13T01:38:48;13.50;99.90
34201;DHT22;20469;55.638;37.670;2023-07-13T01:41:15;13.60;99.90
34201;DHT22;20469;55.638;37.670;2023-07-13T01:43:42;13.50;99.90
34201;DHT22;20469;55.638;37.670;2023-07-13T01:46:10;13.50;99.90
34201;DHT22;20469;55.638;37.670;2023-07-13T01:48:51;13.50;99.90
34201;DHT22;20469;55.638;37.670;2023-07-13T01:51:19;13.50;99.90
34201;DHT22;20469;55.638;37.670;2023-07-13T01:53:47;13.40;99.90
34201;DHT22;20469;55.638;37.670;2023-07-13T01:56:15;13.50;99.90
34201;DHT22;20469;55.638;37.670;2023-07-13T01:58:42;13.50;99.90
34201;DHT22;20469;55.638;37.670;2023-07-13T02:01:09;13.40;99.90
34201;DHT22;20469;55.638;37.670;2023-07-13T02:03:36;13.60;99.90
34201;DHT22;20469;55.638;37.670;2023-07-13T02:06:04;13.40;99.90
34201;DHT22;20469;55.638;37.670;2023-07-13T02:08:32;13.40;99.90
34201;DHT22;20469;55.638;37.670;2023-07-13T02:11:02;13.40;99.90
34201;DHT22;20469;55.638;37.670;2023-07-13T02:13:30;13.40;99.90
34201;DHT22;20469;55.638;37.670;2023-07-13T02:15:57;13.40;99.90
34201;DHT22;20469;55.638;37.670;2023-07-13T02:18:24;13.40;99.90
34201;DHT22;20469;55.638;37.670;2023-07-13T02:20:51;13.50;99.90
34201;DHT22;20469;55.638;37.670;2023-07-13T02:23:19;13.50;99.90
34201;DHT22;20469;55.638;37.670;2023-07-13T02:25:46;13.50;99.90
34201;DHT22;20469;55.638;37.670;2023-07-13T02:28:14;13.50;99.90
34201;DHT22;20469;55.638;37.670;2023-07-13T02:30:41;13.60;99.90
34201;DHT22;20469;55.638;37.670;2023-07-13T02:33:08;13.50;99.90
34201;DHT22;20469;55.638;37.670;2023-07-13T02:35:35;13.50;99.90
34201;DHT22;20469;55.638;37.670;2023-07-13T02:38:02;13.60;99.90
34201;DHT22;20469;55.638;37.670;2023-07-13T02:40:30;13.60;99.90
34201;DHT22;20469;55.638;37.670;2023-07-13T02:43:00;13.70;99.90
34201;DHT22;20469;55.638;37.670;2023-07-13T02:45:27;13.70;99.90
34201;DHT22;20469;55.638;37.670;2023-07-13T02:47:54;13.70;99.90
34201;DHT22;20469;55.638;37.670;2023-07-13T02:50:22;13.60;99.90
34201;DHT22;20469;55.638;37.670;2023-07-13T02:52:49;13.50;99.90
34201;DHT22;20469;55.638;37.670;2023-07-13T02:55:16;13.60;99.90
34201;DHT22;20469;55.638;37.670;2023-07-13T02:57:43;13.70;99.90
34201;DHT22;20469;55.638;37.670;2023-07-13T03:00:11;13.70;99.90
34201;DHT22;20469;55.638;37.670;2023-07-13T03:02:38;13.60;99.90
34201;DHT22;20469;55.638;37.670;2023-07-13T03:05:06;13.60;99.90
34201;DHT22;20469;55.638;37.670;2023-07-13T03:07:33;13.50;99.90
34201;DHT22;20469;55.638;37.670;2023-07-13T03:10:00;13.70;99.90
34201;DHT22;20469;55.638;37.670;2023-07-13T03:12:30;13.70;99.90
34201;DHT22;20469;55.638;37.670;2023-07-13T03:14:57;13.70;99.90
34201;DHT22;20469;55.638;37.670;2023-07-13T03:17:24;13.60;99.90
34201;DHT22;20469;55.638;37.670;2023-07-13T03:19:52;13.70;99.90
34201;DHT22;20469;55.638;37.670;2023-07-13T03:22:19;13.70;99.90
34201;DHT22;20469;55.638;37.670;2023-07-13T03:24:47;13.80;99.90
34201;DHT22;20469;55.638;37.670;2023-07-13T03:27:17;13.70;99.90
34201;DHT22;20469;55.638;37.670;2023-07-13T03:29:44;13.60;99.90
34201;DHT22;20469;55.638;37.670;2023-07-13T03:32:11;13.60;99.90
34201;DHT22;20469;55.638;37.670;2023-07-13T03:34:38;13.70;99.90
34201;DHT22;20469;55.638;37.670;2023-07-13T03:37:05;13.70;99.90
34201;DHT22;20469;55.638;37.670;2023-07-13T03:39:33;13.70;99.90
34201;DHT22;20469;55.638;37.670;2023-07-13T03:42:00;13.70;99.90
34201;DHT22;20469;55.638;37.670;2023-07-13T03:44:27;13.70;99.90
34201;DHT22;20469;55.638;37.670;2023-07-13T03:46:55;13.80;99.90
34201;DHT22;20469;55.638;37.670;2023-07-13T03:49:22;13.70;99.90
34201;DHT22;20469;55.638;37.670;2023-07-13T03:51:49;13.80;99.90
34201;DHT22;20469;55.638;37.670;2023-07-13T03:54:20;13.80;99.90
34201;DHT22;20469;55.638;37.670;2023-07-13T03:56:47;13.80;99.90
34201;DHT22;20469;55.638;37.670;2023-07-13T03:59:14;14.00;99.90
34201;DHT22;20469;55.638;37.670;2023-07-13T04:01:43;13.90;99.90
34201;DHT22;20469;55.638;37.670;2023-07-13T04:04:11;14.10;99.90
34201;DHT22;20469;55.638;37.670;2023-07-13T04:06:38;14.20;99.90
34201;DHT22;20469;55.638;37.670;2023-07-13T04:09:06;14.10;99.90
34201;DHT22;20469;55.638;37.670;2023-07-13T04:11:33;14.10;99.90
34201;DHT22;20469;55.638;37.670;2023-07-13T04:14:03;14.30;99.90
34201;DHT22;20469;55.638;37.670;2023-07-13T04:16:31;14.30;99.90
34201;DHT22;20469;55.638;37.670;2023-07-13T04:18:59;14.30;99.90
34201;DHT22;20469;55.638;37.670;2023-07-13T04:21:30;14.40;99.90
34201;DHT22;20469;55.638;37.670;2023-07-13T04:23:58;14.20;99.90
34201;DHT22;20469;55.638;37.670;2023-07-13T04:26:25;14.30;99.90
34201;DHT22;20469;55.638;37.670;2023-07-13T04:28:54;14.50;99.90
34201;DHT22;20469;55.638;37.670;2023-07-13T04:31:21;14.40;99.90
34201;DHT22;20469;55.638;37.670;2023-07-13T04:33:49;14.50;99.90
34201;DHT22;20469;55.638;37.670;2023-07-13T04:36:17;14.70;99.90
34201;DHT22;20469;55.638;37.670;2023-07-13T04:38:45;14.50;99.90
34201;DHT22;20469;55.638;37.670;2023-07-13T04:41:13;14.60;99.90
34201;DHT22;20469;55.638;37.670;2023-07-13T04:43:41;14.40;99.90
34201;DHT22;20469;55.638;37.670;2023-07-13T04:46:12;14.50;99.90
34201;DHT22;20469;55.638;37.670;2023-07-13T04:48:40;14.50;99.90
34201;DHT22;20469;55.638;37.670;2023-07-13T04:51:07;14.60;99.90
34201;DHT22;20469;55.638;37.670;2023-07-13T04:53:35;14.60;99.90
34201;DHT22;20469;55.638;37.670;2023-07-13T04:56:03;14.60;99.90
34201;DHT22;20469;55.638;37.670;2023-07-13T04:58:30;14.60;99.90
34201;DHT22;20469;55.638;37.670;2023-07-13T05:01:05;14.70;99.90
34201;DHT22;20469;55.638;37.670;2023-07-13T05:03:33;15.10;99.90
34201;DHT22;20469;55.638;37.670;2023-07-13T05:06:05;15.00;99.90
34201;DHT22;20469;55.638;37.670;2023-07-13T05:08:33;15.00;99.90
34201;DHT22;20469;55.638;37.670;2023-07-13T05:11:01;15.20;99.90
34201;DHT22;20469;55.638;37.670;2023-07-13T05:13:29;14.80;99.90
34201;DHT22;20469;55.638;37.670;2023-07-13T05:16:02;14.90;99.90
34201;DHT22;20469;55.638;37.670;2023-07-13T05:18:30;15.20;99.90
34201;DHT22;20469;55.638;37.670;2023-07-13T05:21:00;15.50;99.90
34201;DHT22;20469;55.638;37.670;2023-07-13T05:23:28;15.50;99.90
34201;DHT22;20469;55.638;37.670;2023-07-13T05:25:56;15.50;99.90
34201;DHT22;20469;55.638;37.670;2023-07-13T05:28:24;15.90;99.90
34201;DHT22;20469;55.638;37.670;2023-07-13T05:30:52;15.90;99.90
34201;DHT22;20469;55.638;37.670;2023-07-13T05:33:19;15.80;99.90
34201;DHT22;20469;55.638;37.670;2023-07-13T05:35:47;16.10;99.90
34201;DHT22;20469;55.638;37.670;2023-07-13T05:38:14;15.90;99.90
34201;DHT22;20469;55.638;37.670;2023-07-13T05:40:45;15.90;99.90
34201;DHT22;20469;55.638;37.670;2023-07-13T05:43:13;16.10;99.90
34201;DHT22;20469;55.638;37.670;2023-07-13T05:45:41;16.00;99.90
34201;DHT22;20469;55.638;37.670;2023-07-13T05:48:08;15.90;99.90
34201;DHT22;20469;55.638;37.670;2023-07-13T05:50:36;16.10;99.90
34201;DHT22;20469;55.638;37.670;2023-07-13T05:53:03;16.10;99.90
34201;DHT22;20469;55.638;37.670;2023-07-13T05:55:31;16.40;99.90
34201;DHT22;20469;55.638;37.670;2023-07-13T05:58:00;16.50;99.90
34201;DHT22;20469;55.638;37.670;2023-07-13T06:00:28;16.30;99.90
34201;DHT22;20469;55.638;37.670;2023-07-13T06:02:56;16.20;99.90
34201;DHT22;20469;55.638;37.670;2023-07-13T06:05:26;16.30;99.90
34201;DHT22;20469;55.638;37.670;2023-07-13T06:07:54;16.30;99.90
34201;DHT22;20469;55.638;37.670;2023-07-13T06:10:21;16.30;99.90
34201;DHT22;20469;55.638;37.670;2023-07-13T06:12:48;16.70;99.90
34201;DHT22;20469;55.638;37.670;2023-07-13T06:15:16;16.90;99.90
34201;DHT22;20469;55.638;37.670;2023-07-13T06:17:44;17.20;99.90
34201;DHT22;20469;55.638;37.670;2023-07-13T06:20:12;17.10;99.90
34201;DHT22;20469;55.638;37.670;2023-07-13T06:22:39;16.90;99.90
34201;DHT22;20469;55.638;37.670;2023-07-13T06:25:07;16.80;99.90
34201;DHT22;20469;55.638;37.670;2023-07-13T06:27:34;16.90;99.90
34201;DHT22;20469;55.638;37.670;2023-07-13T06:30:02;17.30;99.90
34201;DHT22;20469;55.638;37.670;2023-07-13T06:32:31;17.30;99.90
34201;DHT22;20469;55.638;37.670;2023-07-13T06:34:58;17.70;99.90
34201;DHT22;20469;55.638;37.670;2023-07-13T06:37:25;17.50;99.90
34201;DHT22;20469;55.638;37.670;2023-07-13T06:39:52;17.30;92.10
34201;DHT22;20469;55.638;37.670;2023-07-13T06:42:20;17.80;83.80
34201;DHT22;20469;55.638;37.670;2023-07-13T06:44:47;17.60;65.80
34201;DHT22;20469;55.638;37.670;2023-07-13T06:47:14;17.50;57.20
34201;DHT22;20469;55.638;37.670;2023-07-13T06:49:41;17.90;59.90
34201;DHT22;20469;55.638;37.670;2023-07-13T06:52:08;17.80;64.80
34201;DHT22;20469;55.638;37.670;2023-07-13T06:54:36;17.60;50.20
34201;DHT22;20469;55.638;37.670;2023-07-13T06:57:04;17.60;42.00
34201;DHT22;20469;55.638;37.670;2023-07-13T06:59:31;17.70;34.40
34201;DHT22;20469;55.638;37.670;2023-07-13T07:01:58;17.50;26.10
34201;DHT22;20469;55.638;37.670;2023-07-13T07:04:25;17.70;30.60
34201;DHT22;20469;55.638;37.670;2023-07-13T07:06:54;17.60;22.60
34201;DHT22;20469;55.638;37.670;2023-07-13T07:09:25;17.60;27.40
34201;DHT22;20469;55.638;37.670;2023-07-13T07:11:52;17.60;34.10
34201;DHT22;20469;55.638;37.670;2023-07-13T07:14:30;17.60;20.40
34201;DHT22;20469;55.638;37.670;2023-07-13T07:16:58;17.60;28.80
34201;DHT22;20469;55.638;37.670;2023-07-13T07:19:29;17.30;19.70
34201;DHT22;20469;55.638;37.670;2023-07-13T07:21:56;17.10;22.00
34201;DHT22;20469;55.638;37.670;2023-07-13T07:24:24;17.20;25.10
34201;DHT22;20469;55.638;37.670;2023-07-13T07:26:51;17.30;35.10
34201;DHT22;20469;55.638;37.670;2023-07-13T07:29:21;17.20;27.60
34201;DHT22;20469;55.638;37.670;2023-07-13T07:31:53;17.40;37.10
34201;DHT22;20469;55.638;37.670;2023-07-13T07:34:23;17.30;34.80
34201;DHT22;20469;55.638;37.670;2023-07-13T07:36:51;17.50;30.80
34201;DHT22;20469;55.638;37.670;2023-07-13T07:39:21;17.60;30.60
34201;DHT22;20469;55.638;37.670;2023-07-13T07:41:48;17.60;26.20
34201;DHT22;20469;55.638;37.670;2023-07-13T07:44:20;17.60;23.90
34201;DHT22;20469;55.638;37.670;2023-07-13T07:46:47;17.50;19.60
34201;DHT22;20469;55.638;37.670;2023-07-13T07:49:15;17.40;22.60
34201;DHT22;20469;55.638;37.670;2023-07-13T07:51:42;17.50;25.50
34201;DHT22;20469;55.638;37.670;2023-07-13T07:54:10;17.50;27.60
34201;DHT22;20469;55.638;37.670;2023-07-13T07:56:41;17.60;29.60
34201;DHT22;20469;55.638;37.670;2023-07-13T07:59:11;17.60;33.10
34201;DHT22;20469;55.638;37.670;2023-07-13T08:01:41;17.40;32.10
34201;DHT22;20469;55.638;37.670;2023-07-13T08:04:28;17.50;38.40
34201;DHT22;20469;55.638;37.670;2023-07-13T08:06:58;17.40;50.10
34201;DHT22;20469;55.638;37.670;2023-07-13T08:09:26;17.40;49.00
34201;DHT22;20469;55.638;37.670;2023-07-13T08:11:53;17.40;55.40
34201;DHT22;20469;55.638;37.670;2023-07-13T08:14:24;17.30;66.50
34201;DHT22;20469;55.638;37.670;2023-07-13T08:17:08;17.20;85.60
34201;DHT22;20469;55.638;37.670;2023-07-13T08:19:36;17.20;64.40
34201;DHT22;20469;55.638;37.670;2023-07-13T08:22:03;17.20;74.20
34201;DHT22;20469;55.638;37.670;2023-07-13T08:24:30;17.20;87.60
34201;DHT22;20469;55.638;37.670;2023-07-13T08:26:57;17.20;49.00
34201;DHT22;20469;55.638;37.670;2023-07-13T08:29:24;17.20;43.90
34201;DHT22;20469;55.638;37.670;2023-07-13T08:31:52;17.20;43.90
34201;DHT22;20469;55.638;37.670;2023-07-13T08:34:19;17.20;32.20
34201;DHT22;20469;55.638;37.670;2023-07-13T08:36:47;17.30;29.10
34201;DHT22;20469;55.638;37.670;2023-07-13T08:39:14;17.20;28.10
34201;DHT22;20469;55.638;37.670;2023-07-13T08:41:43;17.10;26.20
34201;DHT22;20469;55.638;37.670;2023-07-13T08:47:03;17.00;36.20
34201;DHT22;20469;55.638;37.670;2023-07-13T08:49:30;17.00;36.70
34201;DHT22;20469;55.638;37.670;2023-07-13T08:52:09;17.00;47.90
34201;DHT22;20469;55.638;37.670;2023-07-13T08:54:41;17.10;54.70
34201;DHT22;20469;55.638;37.670;2023-07-13T08:57:19;16.80;49.70
34201;DHT22;20469;55.638;37.670;2023-07-13T08:59:47;16.90;47.00
34201;DHT22;20469;55.638;37.670;2023-07-13T09:05:02;16.70;72.00
34201;DHT22;20469;55.638;37.670;2023-07-13T09:12:46;16.60;99.90
34201;DHT22;20469;55.638;37.670;2023-07-13T09:17:58;16.90;99.90
34201;DHT22;20469;55.638;37.670;2023-07-13T09:20:33;16.70;99.90
34201;DHT22;20469;55.638;37.670;2023-07-13T09:23:05;17.00;99.90
34201;DHT22;20469;55.638;37.670;2023-07-13T09:25:35;17.10;99.90
34201;DHT22;20469;55.638;37.670;2023-07-13T09:28:33;16.90;99.90
34201;DHT22;20469;55.638;37.670;2023-07-13T09:31:32;16.90;99.90
34201;DHT22;20469;55.638;37.670;2023-07-13T09:34:01;16.80;99.90
34201;DHT22;20469;55.638;37.670;2023-07-13T09:36:32;16.70;99.90
34201;DHT22;20469;55.638;37.670;2023-07-13T09:44:18;16.60;99.90
34201;DHT22;20469;55.638;37.670;2023-07-13T09:46:55;16.80;99.90
34201;DHT22;20469;55.638;37.670;2023-07-13T09:49:29;16.50;99.90
34201;DHT22;20469;55.638;37.670;2023-07-13T09:51:59;16.40;99.90
34201;DHT22;20469;55.638;37.670;2023-07-13T09:54:28;16.70;99.90
34201;DHT22;20469;55.638;37.670;2023-07-13T09:56:59;16.40;99.90
34201;DHT22;20469;55.638;37.670;2023-07-13T09:59:34;16.60;99.90
34201;DHT22;20469;55.638;37.670;2023-07-13T10:02:01;16.10;99.90
34201;DHT22;20469;55.638;37.670;2023-07-13T10:04:34;16.10;99.90
34201;DHT22;20469;55.638;37.670;2023-07-13T10:07:06;15.90;99.90
34201;DHT22;20469;55.638;37.670;2023-07-13T10:09:55;15.90;99.90
34201;DHT22;20469;55.638;37.670;2023-07-13T10:12:23;16.00;99.90
34201;DHT22;20469;55.638;37.670;2023-07-13T10:14:57;16.00;99.90
34201;DHT22;20469;55.638;37.670;2023-07-13T10:17:45;16.00;99.90
34201;DHT22;20469;55.638;37.670;2023-07-13T10:20:14;15.90;99.90
34201;DHT22;20469;55.638;37.670;2023-07-13T10:23:08;15.80;99.90
34201;DHT22;20469;55.638;37.670;2023-07-13T10:25:39;15.80;99.90
34201;DHT22;20469;55.638;37.670;2023-07-13T10:28:29;15.70;99.90
34201;DHT22;20469;55.638;37.670;2023-07-13T10:30:59;15.70;99.90
34201;DHT22;20469;55.638;37.670;2023-07-13T10:33:28;15.60;99.90
34201;DHT22;20469;55.638;37.670;2023-07-13T10:36:12;15.60;99.90
34201;DHT22;20469;55.638;37.670;2023-07-13T10:38:46;15.60;99.90
34201;DHT22;20469;55.638;37.670;2023-07-13T10:41:18;15.70;99.90
34201;DHT22;20469;55.638;37.670;2023-07-13T10:43:52;15.40;99.90
34201;DHT22;20469;55.638;37.670;2023-07-13T10:46:22;15.70;99.90
34201;DHT22;20469;55.638;37.670;2023-07-13T10:48:54;15.80;99.90
34201;DHT22;20469;55.638;37.670;2023-07-13T10:51:22;15.60;99.90
34201;DHT22;20469;55.638;37.670;2023-07-13T10:54:18;15.50;99.90
34201;DHT22;20469;55.638;37.670;2023-07-13T10:56:50;15.60;99.90
34201;DHT22;20469;55.638;37.670;2023-07-13T10:59:28;15.60;99.90
34201;DHT22;20469;55.638;37.670;2023-07-13T11:04:39;15.50;99.90
34201;DHT22;20469;55.638;37.670;2023-07-13T11:07:30;15.40;99.90
34201;DHT22;20469;55.638;37.670;2023-07-13T11:10:04;15.60;99.90
34201;DHT22;20469;55.638;37.670;2023-07-13T11:15:15;15.40;99.90
34201;DHT22;20469;55.638;37.670;2023-07-13T11:17:56;15.50;99.90
34201;DHT22;20469;55.638;37.670;2023-07-13T11:20:33;15.40;99.90
34201;DHT22;20469;55.638;37.670;2023-07-13T11:25:36;15.30;99.90
34201;DHT22;20469;55.638;37.670;2023-07-13T11:40:56;15.50;99.90
34201;DHT22;20469;55.638;37.670;2023-07-13T11:43:25;15.50;99.90
34201;DHT22;20469;55.638;37.670;2023-07-13T11:45:52;15.50;99.90
34201;DHT22;20469;55.638;37.670;2023-07-13T11:48:22;15.60;99.90
34201;DHT22;20469;55.638;37.670;2023-07-13T11:51:04;15.50;99.90
34201;DHT22;20469;55.638;37.670;2023-07-13T11:53:45;15.40;99.90
34201;DHT22;20469;55.638;37.670;2023-07-13T11:56:13;15.40;99.90
34201;DHT22;20469;55.638;37.670;2023-07-13T11:58:41;15.20;99.90
34201;DHT22;20469;55.638;37.670;2023-07-13T12:01:30;15.30;99.90
34201;DHT22;20469;55.638;37.670;2023-07-13T12:04:04;15.30;99.90
34201;DHT22;20469;55.638;37.670;2023-07-13T12:06:36;15.40;99.90
34201;DHT22;20469;55.638;37.670;2023-07-13T12:09:14;15.20;99.90
34201;DHT22;20469;55.638;37.670;2023-07-13T12:11:43;15.40;99.90
34201;DHT22;20469;55.638;37.670;2023-07-13T12:14:15;15.50;99.90
34201;DHT22;20469;55.638;37.670;2023-07-13T12:16:44;15.40;99.90
34201;DHT22;20469;55.638;37.670;2023-07-13T12:19:28;15.30;99.90
34201;DHT22;20469;55.638;37.670;2023-07-13T12:21:57;15.30;99.90
34201;DHT22;20469;55.638;37.670;2023-07-13T12:24:26;15.40;99.90
34201;DHT22;20469;55.638;37.670;2023-07-13T12:27:04;15.40;99.90
34201;DHT22;20469;55.638;37.670;2023-07-13T12:29:32;15.40;99.90
34201;DHT22;20469;55.638;37.670;2023-07-13T12:32:00;15.50;99.90
34201;DHT22;20469;55.638;37.670;2023-07-13T12:34:27;15.50;99.90
34201;DHT22;20469;55.638;37.670;2023-07-13T12:37:02;15.50;99.90
34201;DHT22;20469;55.638;37.670;2023-07-13T12:39:46;15.50;99.90
34201;DHT22;20469;55.638;37.670;2023-07-13T12:42:26;15.50;99.90
34201;DHT22;20469;55.638;37.670;2023-07-13T12:45:18;15.40;99.90
34201;DHT22;20469;55.638;37.670;2023-07-13T12:47:49;15.30;99.90
34201;DHT22;20469;55.638;37.670;2023-07-13T12:50:19;15.50;99.90
34201;DHT22;20469;55.638;37.670;2023-07-13T12:52:53;15.40;99.90
34201;DHT22;20469;55.638;37.670;2023-07-13T12:55:21;15.40;99.90
34201;DHT22;20469;55.638;37.670;2023-07-13T12:57:54;15.30;99.90
34201;DHT22;20469;55.638;37.670;2023-07-13T13:00:26;15.30;99.90
34201;DHT22;20469;55.638;37.670;2023-07-13T13:02:56;15.30;99.90
34201;DHT22;20469;55.638;37.670;2023-07-13T13:05:45;15.30;99.90
34201;DHT22;20469;55.638;37.670;2023-07-13T13:08:13;15.20;99.90
34201;DHT22;20469;55.638;37.670;2023-07-13T13:10:41;15.10;99.90
34201;DHT22;20469;55.638;37.670;2023-07-13T13:13:08;15.10;99.90
34201;DHT22;20469;55.638;37.670;2023-07-13T13:15:35;15.10;99.90
34201;DHT22;20469;55.638;37.670;2023-07-13T13:18:19;15.10;99.90
34201;DHT22;20469;55.638;37.670;2023-07-13T13:20:47;15.30;99.90
34201;DHT22;20469;55.638;37.670;2023-07-13T13:23:19;15.10;99.90
34201;DHT22;20469;55.638;37.670;2023-07-13T13:25:49;15.20;99.90
34201;DHT22;20469;55.638;37.670;2023-07-13T13:28:20;15.20;99.90
34201;DHT22;20469;55.638;37.670;2023-07-13T13:30:49;15.00;99.90
34201;DHT22;20469;55.638;37.670;2023-07-13T13:33:19;15.20;99.90
34201;DHT22;20469;55.638;37.670;2023-07-13T13:35:47;15.20;99.90
34201;DHT22;20469;55.638;37.670;2023-07-13T13:38:21;15.20;99.90
34201;DHT22;20469;55.638;37.670;2023-07-13T13:40:51;15.10;99.90
34201;DHT22;20469;55.638;37.670;2023-07-13T13:43:23;15.00;99.90
34201;DHT22;20469;55.638;37.670;2023-07-13T13:45:56;15.10;99.90
34201;DHT22;20469;55.638;37.670;2023-07-13T13:48:32;15.10;99.90
34201;DHT22;20469;55.638;37.670;2023-07-13T13:51:03;15.10;99.90
34201;DHT22;20469;55.638;37.670;2023-07-13T13:53:33;15.00;99.90
34201;DHT22;20469;55.638;37.670;2023-07-13T13:56:00;15.20;99.90
34201;DHT22;20469;55.638;37.670;2023-07-13T13:58:27;15.10;99.90
34201;DHT22;20469;55.638;37.670;2023-07-13T14:00:55;15.10;99.90
34201;DHT22;20469;55.638;37.670;2023-07-13T14:03:22;15.10;99.90
34201;DHT22;20469;55.638;37.670;2023-07-13T14:05:49;15.10;99.90
34201;DHT22;20469;55.638;37.670;2023-07-13T14:08:19;15.00;99.90
34201;DHT22;20469;55.638;37.670;2023-07-13T14:10:49;14.90;99.90
34201;DHT22;20469;55.638;37.670;2023-07-13T14:13:21;14.90;99.90
34201;DHT22;20469;55.638;37.670;2023-07-13T14:15:48;14.90;99.90
34201;DHT22;20469;55.638;37.670;2023-07-13T14:18:16;14.90;99.90
34201;DHT22;20469;55.638;37.670;2023-07-13T14:20:46;15.00;99.90
34201;DHT22;20469;55.638;37.670;2023-07-13T14:23:15;15.00;99.90
34201;DHT22;20469;55.638;37.670;2023-07-13T14:25:43;15.10;99.90
34201;DHT22;20469;55.638;37.670;2023-07-13T14:28:23;15.00;99.90
34201;DHT22;20469;55.638;37.670;2023-07-13T14:30:52;14.90;99.90
34201;DHT22;20469;55.638;37.670;2023-07-13T14:33:20;15.00;99.90
34201;DHT22;20469;55.638;37.670;2023-07-13T14:35:48;15.00;99.90
34201;DHT22;20469;55.638;37.670;2023-07-13T14:38:19;15.00;99.90
34201;DHT22;20469;55.638;37.670;2023-07-13T14:40:46;15.00;99.90
34201;DHT22;20469;55.638;37.670;2023-07-13T14:43:16;15.00;99.90
34201;DHT22;20469;55.638;37.670;2023-07-13T14:45:47;14.90;99.90
34201;DHT22;20469;55.638;37.670;2023-07-13T14:48:19;14.90;99.90
34201;DHT22;20469;55.638;37.670;2023-07-13T14:50:54;15.00;99.90
34201;DHT22;20469;55.638;37.670;2023-07-13T14:53:24;14.90;99.90
34201;DHT22;20469;55.638;37.670;2023-07-13T14:55:52;15.00;99.90
34201;DHT22;20469;55.638;37.670;2023-07-13T14:58:19;15.00;99.90
34201;DHT22;20469;55.638;37.670;2023-07-13T15:00:47;15.00;99.90
34201;DHT22;20469;55.638;37.670;2023-07-13T15:03:23;14.90;99.90
34201;DHT22;20469;55.638;37.670;2023-07-13T15:05:52;14.90;99.90
34201;DHT22;20469;55.638;37.670;2023-07-13T15:08:20;14.80;99.90
34201;DHT22;20469;55.638;37.670;2023-07-13T15:10:47;14.80;99.90
34201;DHT22;20469;55.638;37.670;2023-07-13T15:13:20;14.80;99.90
34201;DHT22;20469;55.638;37.670;2023-07-13T15:15:50;14.80;99.90
34201;DHT22;20469;55.638;37.670;2023-07-13T15:18:21;14.90;99.90
34201;DHT22;20469;55.638;37.670;2023-07-13T15:20:50;14.90;99.90
34201;DHT22;20469;55.638;37.670;2023-07-13T15:23:19;15.00;99.90
34201;DHT22;20469;55.638;37.670;2023-07-13T15:25:46;14.90;99.90
34201;DHT22;20469;55.638;37.670;2023-07-13T15:28:13;14.90;99.90
34201;DHT22;20469;55.638;37.670;2023-07-13T15:30:45;14.70;99.90
34201;DHT22;20469;55.638;37.670;2023-07-13T15:33:25;14.70;99.90
34201;DHT22;20469;55.638;37.670;2023-07-13T15:35:53;14.70;99.90
34201;DHT22;20469;55.638;37.670;2023-07-13T15:38:23;14.80;99.90
34201;DHT22;20469;55.638;37.670;2023-07-13T15:40:52;14.80;99.90
34201;DHT22;20469;55.638;37.670;2023-07-13T15:43:20;14.70;99.90
34201;DHT22;20469;55.638;37.670;2023-07-13T15:45:47;14.70;99.90
34201;DHT22;20469;55.638;37.670;2023-07-13T15:48:20;14.60;99.90
34201;DHT22;20469;55.638;37.670;2023-07-13T15:50:52;14.80;99.90
34201;DHT22;20469;55.638;37.670;2023-07-13T15:53:28;14.80;99.90
34201;DHT22;20469;55.638;37.670;2023-07-13T15:55:56;14.70;99.90
34201;DHT22;20469;55.638;37.670;2023-07-13T15:58:25;14.70;99.90
34201;DHT22;20469;55.638;37.670;2023-07-13T16:00:53;14.70;99.90
34201;DHT22;20469;55.638;37.670;2023-07-13T16:03:21;14.80;99.90
34201;DHT22;20469;55.638;37.670;2023-07-13T16:05:49;14.70;99.90
34201;DHT22;20469;55.638;37.670;2023-07-13T16:08:36;14.70;99.90
34201;DHT22;20469;55.638;37.670;2023-07-13T16:11:20;14.70;99.90
34201;DHT22;20469;55.638;37.670;2023-07-13T16:13:48;14.70;99.90